Kenosha Regional Airport
KENW : now visible

Airfield :











YOU CAN JOIN US ON...

 
LOGIN :

Register | Disclaimer

   EN    FR    IT 

 









Legend :    VFR   Marginal VFR   IFR   Intensive IFR   Very Intensive IFR
Visi :
Ceiling :
>= 8 km
>= 3000ft
5 to 8 km
1000 to 3000 ft
1500m to 5 km
500 to 1000 ft
800 to 1500m
200 to 500 ft
< 800m
< 200 ft
Symbols :   Thunderstorms  Fog  Heavy snow  Heavy precipitations  Wind > 20 kt






- Airport Elevation : 742 ft


KENW - Kenosha Regional

CURRENT METAR :
  • 021653Z VRB03KT 10SM CLR 28/08 A3008 RMK AO2 SLP181 T02830078

EXPIRED METARs :
  • 021553Z VRB03KT 10SM CLR 27/08 A3007 RMK AO2 SLP179 T02720078
  • 021453Z VRB03KT 10SM CLR 26/08 A3007 RMK AO2 SLP179 T02560078 53012
  • 020253Z AUTO 00000KT 10SM CLR 18/13 A2999 RMK AO2 SLP152 T01830133 53008

TAF KENW
Valid from the 02 at 12:00 until the 03 at 12:00 UTC


021120Z 0212/0312 VRB05KT P6SM SKC
FM021800 13007KT P6SM SCT250
FM030000 12005KT P6SM BKN130
FM030200 VRB03KT P6SM SCT230
KZAU FIR / North America



MET'MAP, your aeronautical weather chart ! - Copyright ORBIFLY December 2007 - Disclaimer

ORBIFLY MET'MAP TEAM :

Programming & Development : Alexandra Zaïnal
Original concept : Baudouin d'Aumeries
Technical & hardware support : Manuel Goepfert
Assistance : Marc-Olivier Méhu




SOURCES & CREDITS :

   NOAA       Earth
Advisory